createdAt,value
2022-08-05T00:01:36.008Z,19.50
2022-08-05T00:04:17.257Z,19.50
2022-08-05T00:06:51.831Z,19.50
2022-08-05T00:09:20.805Z,19.50
2022-08-05T00:11:56.120Z,19.50
2022-08-05T00:14:29.228Z,19.50
2022-08-05T00:17:01.919Z,19.50
2022-08-05T00:19:33.097Z,19.60
2022-08-05T00:22:05.067Z,19.60
2022-08-05T00:24:35.056Z,19.60
2022-08-05T00:27:10.594Z,19.70
2022-08-05T00:29:42.639Z,19.70
2022-08-05T00:32:15.051Z,19.70
2022-08-05T00:35:04.759Z,19.70
2022-08-05T00:37:53.316Z,19.70
2022-08-05T00:40:27.115Z,19.70
2022-08-05T00:42:58.507Z,19.80
2022-08-05T00:45:38.930Z,19.90
2022-08-05T00:48:10.122Z,19.80
2022-08-05T00:50:41.371Z,19.80
2022-08-05T00:53:45.081Z,19.90
2022-08-05T00:56:03.477Z,19.90
2022-08-05T00:58:32.149Z,19.80
2022-08-05T01:01:08.752Z,19.60
2022-08-05T01:03:38.048Z,19.50
2022-08-05T01:06:14.239Z,19.50
2022-08-05T01:08:47.252Z,19.40
2022-08-05T01:11:21.778Z,19.40
2022-08-05T01:14:01.840Z,19.40
2022-08-05T01:16:36.089Z,19.40
2022-08-05T01:19:17.499Z,19.40
2022-08-05T01:22:18.909Z,19.40
2022-08-05T01:25:22.568Z,19.40
2022-08-05T01:28:14.979Z,19.40
2022-08-05T01:30:53.739Z,19.30
2022-08-05T01:33:35.325Z,19.40
2022-08-05T01:36:12.833Z,19.30
2022-08-05T01:38:48.558Z,19.20
2022-08-05T01:41:25.817Z,19.20
2022-08-05T01:43:57.677Z,19.20
2022-08-05T01:46:41.295Z,19.20
2022-08-05T01:49:23.724Z,19.20
2022-08-05T01:51:59.150Z,19.20
2022-08-05T01:54:46.163Z,19.10
2022-08-05T01:58:29.392Z,19.00
2022-08-05T02:00:12.304Z,19.10
2022-08-05T02:02:53.636Z,19.20
2022-08-05T02:05:29.760Z,19.30
2022-08-05T02:08:01.220Z,19.20
2022-08-05T02:10:35.000Z,19.10
2022-08-05T02:13:15.928Z,19.10
2022-08-05T02:15:52.128Z,19.00
2022-08-05T02:18:32.359Z,19.00
2022-08-05T02:21:15.224Z,19.00
2022-08-05T02:23:46.425Z,18.90
2022-08-05T02:26:20.779Z,18.90
2022-08-05T02:28:51.509Z,18.80
2022-08-05T02:31:28.615Z,18.80
2022-08-05T02:34:09.194Z,18.80
2022-08-05T02:36:44.048Z,18.80
2022-08-05T02:39:14.371Z,18.80
2022-08-05T02:41:58.253Z,18.80
2022-08-05T02:44:31.477Z,18.80
2022-08-05T02:47:05.601Z,18.90
2022-08-05T02:49:40.710Z,19.00
2022-08-05T02:52:21.966Z,19.00
2022-08-05T02:55:01.812Z,19.10
2022-08-05T02:58:20.022Z,19.00
2022-08-05T03:00:26.839Z,18.90
2022-08-05T03:02:59.606Z,18.90
2022-08-05T03:06:54.658Z,18.90
2022-08-05T03:08:27.064Z,18.90
2022-08-05T03:11:53.587Z,18.90
2022-08-05T03:13:51.477Z,18.80
2022-08-05T03:16:31.835Z,18.80
2022-08-05T03:19:12.758Z,18.70
2022-08-05T03:21:49.581Z,18.60
2022-08-05T03:24:29.371Z,18.50
2022-08-05T03:26:59.651Z,18.40
2022-08-05T03:29:45.200Z,18.30
2022-08-05T03:32:18.018Z,18.20
2022-08-05T03:34:51.280Z,18.20
2022-08-05T03:37:22.578Z,18.10
2022-08-05T03:40:01.134Z,18.00
2022-08-05T03:42:32.848Z,18.00
2022-08-05T03:45:21.526Z,18.10
2022-08-05T03:47:56.800Z,18.00
2022-08-05T03:50:30.380Z,18.00
2022-08-05T03:55:49.691Z,17.90
2022-08-05T03:56:12.029Z,17.90
2022-08-05T03:58:50.700Z,17.80
2022-08-05T04:01:23.071Z,17.80
2022-08-05T04:03:56.906Z,17.80
2022-08-05T04:06:47.858Z,17.70
2022-08-05T04:09:26.518Z,17.70
2022-08-05T04:11:56.925Z,17.70
2022-08-05T04:14:30.437Z,17.70
2022-08-05T04:17:02.993Z,17.80
2022-08-05T04:19:32.417Z,17.80
2022-08-05T04:22:10.248Z,17.80
2022-08-05T04:24:44.508Z,17.90
2022-08-05T04:27:41.907Z,18.00
2022-08-05T04:30:12.267Z,18.00
2022-08-05T04:32:42.628Z,18.00
2022-08-05T04:35:17.342Z,18.10
2022-08-05T04:38:01.296Z,18.10
2022-08-05T04:40:36.815Z,18.10
2022-08-05T04:43:06.586Z,18.00
2022-08-05T04:45:48.929Z,18.00
2022-08-05T04:48:27.543Z,18.00
2022-08-05T04:51:02.513Z,18.10
2022-08-05T04:53:35.543Z,18.10
2022-08-05T04:56:33.808Z,18.20
2022-08-05T04:58:54.194Z,18.30
2022-08-05T05:02:05.523Z,18.30
2022-08-05T05:04:12.258Z,18.30
2022-08-05T05:06:44.709Z,18.40
2022-08-05T05:09:17.419Z,18.50
2022-08-05T05:11:53.925Z,18.60
2022-08-05T05:14:28.080Z,18.60
2022-08-05T05:17:03.686Z,18.70
2022-08-05T05:19:44.001Z,18.60
2022-08-05T05:22:24.301Z,18.60
2022-08-05T05:25:00.278Z,18.50
2022-08-05T05:27:41.498Z,18.50
2022-08-05T05:30:29.556Z,18.50
2022-08-05T05:33:03.510Z,18.40
2022-08-05T05:35:39.696Z,18.40
2022-08-05T05:38:13.745Z,18.50
2022-08-05T05:40:49.453Z,18.60
2022-08-05T05:43:27.573Z,18.50
2022-08-05T05:46:17.823Z,18.50
2022-08-05T05:48:49.097Z,18.50
2022-08-05T05:51:23.165Z,18.50
2022-08-05T05:53:58.058Z,18.60
2022-08-05T05:56:33.161Z,18.80
2022-08-05T05:59:07.890Z,19.00
2022-08-05T06:01:39.667Z,19.10
2022-08-05T06:04:11.778Z,19.30
2022-08-05T06:06:42.923Z,19.40
2022-08-05T06:09:24.624Z,19.50
2022-08-05T06:11:59.126Z,19.70
2022-08-05T06:14:30.209Z,20.00
2022-08-05T06:16:59.667Z,20.00
2022-08-05T06:19:34.773Z,20.00
2022-08-05T06:22:04.026Z,20.00
2022-08-05T06:24:33.260Z,19.90
2022-08-05T06:27:05.710Z,19.90
2022-08-05T06:29:53.369Z,19.80
2022-08-05T06:32:34.485Z,19.70
2022-08-05T06:35:05.770Z,19.70
2022-08-05T06:37:58.310Z,19.60
2022-08-05T06:40:29.608Z,19.60
2022-08-05T06:43:02.885Z,19.50
2022-08-05T06:46:03.411Z,19.50
2022-08-05T06:48:50.249Z,19.50
2022-08-05T06:51:09.562Z,19.40
2022-08-05T06:53:39.103Z,19.40
2022-08-05T06:56:25.895Z,19.40
2022-08-05T06:58:57.554Z,19.40
2022-08-05T07:01:27.696Z,19.50
2022-08-05T07:04:01.514Z,19.50
2022-08-05T07:06:31.828Z,19.50
2022-08-05T07:09:03.769Z,19.50
2022-08-05T07:11:37.141Z,19.60
2022-08-05T07:14:29.556Z,19.50
2022-08-05T07:18:02.423Z,19.50
2022-08-05T07:20:32.535Z,19.60
2022-08-05T07:22:51.271Z,19.60
2022-08-05T07:25:22.620Z,19.70
2022-08-05T07:28:11.717Z,19.70
2022-08-05T07:30:52.875Z,19.60
2022-08-05T07:33:36.949Z,19.50
2022-08-05T07:36:20.106Z,19.50
2022-08-05T07:38:54.778Z,19.40
2022-08-05T07:42:09.070Z,19.50
2022-08-05T07:44:18.676Z,19.60
2022-08-05T07:46:49.749Z,19.70
2022-08-05T07:49:20.672Z,19.70
2022-08-05T07:51:54.715Z,19.80
2022-08-05T07:54:30.773Z,20.00
2022-08-05T07:57:16.969Z,20.10
2022-08-05T07:59:49.646Z,20.30
2022-08-05T08:02:19.105Z,20.40
2022-08-05T08:04:50.034Z,20.50
2022-08-05T08:07:22.509Z,20.60
2022-08-05T08:09:55.098Z,20.60
2022-08-05T08:12:35.210Z,20.60
2022-08-05T08:15:09.688Z,20.60
2022-08-05T08:17:46.059Z,20.60
2022-08-05T08:20:44.605Z,20.70
2022-08-05T08:23:05.115Z,20.80
2022-08-05T08:26:00.048Z,20.80
2022-08-05T08:28:35.791Z,20.80
2022-08-05T08:31:06.255Z,20.80
2022-08-05T08:33:37.631Z,20.80
2022-08-05T08:38:58.369Z,20.60
2022-08-05T08:41:50.849Z,20.60
2022-08-05T08:45:21.420Z,20.70
2022-08-05T08:47:47.534Z,20.80
2022-08-05T08:50:22.347Z,20.90
2022-08-05T08:52:55.787Z,21.00
2022-08-05T08:56:01.710Z,21.20
2022-08-05T08:58:17.701Z,21.10
2022-08-05T09:00:46.923Z,21.00
2022-08-05T09:03:19.156Z,20.90
2022-08-05T09:06:07.717Z,20.80
2022-08-05T09:08:40.190Z,20.80
2022-08-05T09:11:13.672Z,20.80
2022-08-05T09:14:00.846Z,21.00
2022-08-05T09:16:32.804Z,21.30
2022-08-05T09:19:01.712Z,22.00
2022-08-05T09:22:30.837Z,22.20
2022-08-05T09:24:26.076Z,22.50
2022-08-05T09:26:58.918Z,22.60
2022-08-05T09:29:47.513Z,22.50
2022-08-05T09:32:42.299Z,22.30
2022-08-05T09:35:26.722Z,22.10
2022-08-05T09:38:12.273Z,22.10
2022-08-05T09:40:53.598Z,22.10
2022-08-05T09:43:41.788Z,22.10
2022-08-05T09:46:27.728Z,21.90
2022-08-05T09:49:08.138Z,21.70
2022-08-05T09:51:49.343Z,21.60
2022-08-05T09:54:31.307Z,21.30
2022-08-05T09:57:02.036Z,21.00
2022-08-05T09:59:34.873Z,20.90
2022-08-05T10:02:06.164Z,20.70
2022-08-05T10:04:41.173Z,20.60
2022-08-05T10:07:21.035Z,20.60
2022-08-05T10:10:15.197Z,20.60
2022-08-05T10:12:50.425Z,20.70
2022-08-05T10:15:29.821Z,20.90
2022-08-05T10:18:16.694Z,21.00
2022-08-05T10:20:48.403Z,21.00
2022-08-05T10:23:34.062Z,21.10
2022-08-05T10:26:14.465Z,21.20
2022-08-05T10:28:46.771Z,21.30
2022-08-05T10:32:52.645Z,21.20
2022-08-05T10:34:07.195Z,21.00
2022-08-05T10:36:38.276Z,21.00
2022-08-05T10:39:24.320Z,20.90
2022-08-05T10:42:04.705Z,21.00
2022-08-05T10:44:36.160Z,21.30
2022-08-05T10:47:25.909Z,21.50
2022-08-05T10:50:28.054Z,21.80
2022-08-05T10:52:58.494Z,22.30
2022-08-05T10:55:28.545Z,23.00
2022-08-05T10:58:17.984Z,24.00
2022-08-05T11:00:55.171Z,24.60
2022-08-05T11:03:29.464Z,24.10
2022-08-05T11:06:16.234Z,23.40
2022-08-05T11:09:16.710Z,22.80
2022-08-05T11:11:53.201Z,22.40
2022-08-05T11:14:57.458Z,22.10
2022-08-05T11:17:57.836Z,21.90
2022-08-05T11:20:45.385Z,21.70
2022-08-05T11:24:02.894Z,21.60
2022-08-05T11:26:29.013Z,21.60
2022-08-05T11:29:12.196Z,21.90
2022-08-05T11:31:57.742Z,22.20
2022-08-05T11:34:51.969Z,22.60
2022-08-05T11:38:28.303Z,22.70
2022-08-05T11:41:13.944Z,23.00
2022-08-05T11:44:05.474Z,22.90
2022-08-05T11:46:37.886Z,22.70
2022-08-05T11:49:26.545Z,22.40
2022-08-05T11:51:57.919Z,22.40
2022-08-05T11:54:33.271Z,22.60
2022-08-05T11:57:07.654Z,22.70
2022-08-05T11:59:50.332Z,23.00
2022-08-05T12:02:29.947Z,23.40
2022-08-05T12:05:07.083Z,23.70
2022-08-05T12:08:03.274Z,23.90
2022-08-05T12:10:43.690Z,23.90
2022-08-05T12:13:18.860Z,23.80
2022-08-05T12:15:57.136Z,23.60
2022-08-05T12:18:34.038Z,23.40
2022-08-05T12:21:15.429Z,23.20
2022-08-05T12:24:05.018Z,23.10
2022-08-05T12:26:37.039Z,23.00
2022-08-05T12:29:09.399Z,23.10
2022-08-05T12:31:43.813Z,23.50
2022-08-05T12:34:21.172Z,24.00
2022-08-05T12:36:52.307Z,24.60
2022-08-05T12:39:23.709Z,25.10
2022-08-05T12:42:03.746Z,25.30
2022-08-05T12:44:34.019Z,25.70
2022-08-05T12:47:03.900Z,26.00
2022-08-05T12:50:03.628Z,26.20
2022-08-05T12:52:39.562Z,27.10
2022-08-05T12:55:25.488Z,28.20
2022-08-05T12:58:50.870Z,28.90
2022-08-05T13:02:01.886Z,29.90
2022-08-05T13:04:07.532Z,29.80
2022-08-05T13:06:51.436Z,30.10
2022-08-05T13:09:28.070Z,29.70
2022-08-05T13:12:05.213Z,29.00
2022-08-05T13:14:38.605Z,28.40
2022-08-05T13:17:24.984Z,28.10
2022-08-05T13:20:03.041Z,27.70
2022-08-05T13:22:31.874Z,27.30
2022-08-05T13:25:05.552Z,26.80
2022-08-05T13:27:39.351Z,26.30
2022-08-05T13:30:34.757Z,25.90
2022-08-05T13:33:01.665Z,25.50
2022-08-05T13:35:47.555Z,25.00
2022-08-05T13:38:30.911Z,24.80
2022-08-05T13:41:05.118Z,24.60
2022-08-05T13:43:45.197Z,24.60
2022-08-05T13:46:44.229Z,24.30
2022-08-05T13:49:12.949Z,24.10
2022-08-05T13:51:46.148Z,24.00
2022-08-05T13:54:16.502Z,24.20
2022-08-05T13:56:50.759Z,25.60
2022-08-05T13:59:24.008Z,26.20
2022-08-05T14:01:56.885Z,26.00
2022-08-05T14:04:49.818Z,25.90
2022-08-05T14:07:56.414Z,26.20
2022-08-05T14:10:18.655Z,26.30
2022-08-05T14:12:57.825Z,26.30
2022-08-05T14:16:07.072Z,25.90
2022-08-05T14:18:23.013Z,25.70
2022-08-05T14:20:54.989Z,25.30
2022-08-05T14:23:26.268Z,25.20
2022-08-05T14:25:58.500Z,24.80
2022-08-05T14:28:28.840Z,24.50
2022-08-05T14:31:00.394Z,24.30
2022-08-05T14:33:56.574Z,24.20
2022-08-05T14:36:20.563Z,24.50
2022-08-05T14:38:50.262Z,24.90
2022-08-05T14:41:18.972Z,25.10
2022-08-05T14:43:59.480Z,25.50
2022-08-05T14:46:36.666Z,25.70
2022-08-05T14:49:08.423Z,25.80
2022-08-05T14:51:38.145Z,25.60
2022-08-05T14:54:30.235Z,25.30
2022-08-05T14:56:57.383Z,25.70
2022-08-05T14:59:29.454Z,27.10
2022-08-05T15:02:25.089Z,27.50
2022-08-05T15:04:54.998Z,26.80
2022-08-05T15:08:05.498Z,26.20
2022-08-05T15:10:12.530Z,26.10
2022-08-05T15:13:00.502Z,27.00
2022-08-05T15:15:54.441Z,26.90
2022-08-05T15:18:20.690Z,26.70
2022-08-05T15:20:49.620Z,26.60
2022-08-05T15:23:19.821Z,26.30
2022-08-05T15:25:52.933Z,26.00
2022-08-05T15:28:27.381Z,25.90
2022-08-05T15:30:57.640Z,25.80
2022-08-05T16:10:35.992Z,25.60
2022-08-05T16:13:34.382Z,25.30
2022-08-05T16:16:29.030Z,25.20
2022-08-05T16:18:58.568Z,24.60
2022-08-05T16:21:58.699Z,24.40
2022-08-05T16:24:39.777Z,23.70
2022-08-05T16:27:09.541Z,23.10
2022-08-05T16:29:38.500Z,23.00
2022-08-05T16:32:09.929Z,23.10
2022-08-05T16:34:42.589Z,23.10
2022-08-05T16:38:01.837Z,22.80
2022-08-05T16:40:04.257Z,22.60
2022-08-05T16:42:37.314Z,22.50
2022-08-05T16:46:05.379Z,22.50
2022-08-05T16:48:02.689Z,22.60
2022-08-05T16:50:32.638Z,22.40
2022-08-05T16:53:12.366Z,22.20
2022-08-05T16:55:50.790Z,22.00
2022-08-05T16:58:20.861Z,22.10
2022-08-05T17:00:49.876Z,22.20
2022-08-05T17:03:19.949Z,22.20
2022-08-05T17:05:54.325Z,21.90
2022-08-05T17:08:51.863Z,21.60
2022-08-05T17:11:17.559Z,21.40
2022-08-05T17:13:47.799Z,21.20
2022-08-05T17:16:33.118Z,21.20
2022-08-05T17:19:07.697Z,21.10
2022-08-05T17:21:40.124Z,21.10
2022-08-05T17:24:18.659Z,20.90
2022-08-05T17:27:00.025Z,20.80
2022-08-05T17:29:40.239Z,20.60
2022-08-05T17:32:11.256Z,20.50
2022-08-05T17:34:47.892Z,20.40
2022-08-05T17:37:36.006Z,20.30
2022-08-05T17:40:12.593Z,20.20
2022-08-05T17:42:49.765Z,20.10
2022-08-05T17:45:23.185Z,20.00
2022-08-05T17:47:55.786Z,19.90
2022-08-05T17:50:28.869Z,19.90
2022-08-05T17:53:01.150Z,19.80
2022-08-05T17:55:38.082Z,19.80
2022-08-05T17:58:12.211Z,19.80
2022-08-05T18:00:47.741Z,19.70
2022-08-05T18:03:56.071Z,19.50
2022-08-05T18:06:11.153Z,19.40
2022-08-05T18:08:44.481Z,19.40
2022-08-05T18:11:24.293Z,19.30
2022-08-05T18:14:04.639Z,19.20
2022-08-05T18:16:51.063Z,19.10
2022-08-05T18:19:23.239Z,19.10
2022-08-05T18:22:07.438Z,19.00
2022-08-05T18:24:40.428Z,19.00
2022-08-05T18:27:12.836Z,18.90
2022-08-05T18:29:54.084Z,18.90
2022-08-05T18:32:28.185Z,18.80
2022-08-05T18:34:58.770Z,18.70
2022-08-05T18:37:33.673Z,18.70
2022-08-05T18:40:54.362Z,18.60
2022-08-05T18:42:59.267Z,18.50
2022-08-05T18:45:41.921Z,18.30
2022-08-05T18:48:30.174Z,18.30
2022-08-05T18:52:04.402Z,18.20
2022-08-05T18:54:08.866Z,18.10
2022-08-05T18:56:38.291Z,18.00
2022-08-05T18:59:44.279Z,17.90
2022-08-05T19:01:57.008Z,17.80
2022-08-05T19:04:30.659Z,17.70
2022-08-05T19:07:02.004Z,17.60
2022-08-05T19:09:40.107Z,17.60
2022-08-05T19:12:10.710Z,17.50
2022-08-05T19:15:00.705Z,17.40
2022-08-05T19:18:09.090Z,17.30
2022-08-05T19:20:22.601Z,17.30
2022-08-05T19:22:53.460Z,17.20
2022-08-05T19:25:29.817Z,17.20
2022-08-05T19:27:59.975Z,17.10
2022-08-05T19:30:28.907Z,17.00
2022-08-05T19:32:58.023Z,17.00
2022-08-05T19:35:56.264Z,17.00
2022-08-05T19:38:24.085Z,17.00
2022-08-05T19:40:55.703Z,17.00
2022-08-05T19:44:04.093Z,17.00
2022-08-05T19:46:16.904Z,16.90
2022-08-05T19:49:01.227Z,16.90
2022-08-05T19:52:09.435Z,16.70
2022-08-05T19:54:29.618Z,16.70
2022-08-05T19:57:02.144Z,16.60
2022-08-05T19:59:56.536Z,16.50
2022-08-05T20:02:21.234Z,16.50
2022-08-05T20:04:55.514Z,16.40
2022-08-05T20:07:46.591Z,16.40
2022-08-05T20:10:22.439Z,16.40
2022-08-05T20:12:55.218Z,16.30
2022-08-05T20:15:52.702Z,16.30
2022-08-05T20:18:35.900Z,16.30
2022-08-05T20:21:01.788Z,16.20
2022-08-05T20:23:39.525Z,16.20
2022-08-05T20:26:19.667Z,16.20
2022-08-05T20:28:50.831Z,16.10
2022-08-05T20:31:21.893Z,15.90
2022-08-05T20:33:52.230Z,15.90
2022-08-05T20:36:21.659Z,15.80
2022-08-05T20:38:54.021Z,15.70
2022-08-05T20:41:44.486Z,15.80
2022-08-05T20:44:18.601Z,15.90
2022-08-05T20:46:58.090Z,15.80
2022-08-05T20:49:26.842Z,15.90
2022-08-05T20:51:57.321Z,16.00
2022-08-05T20:54:55.229Z,15.90
2022-08-05T20:57:24.716Z,16.00
2022-08-05T21:00:20.694Z,16.00
2022-08-05T21:03:01.196Z,16.00
2022-08-05T21:05:48.167Z,16.10
2022-08-05T21:08:18.979Z,16.20
2022-08-05T21:10:49.390Z,16.20
2022-08-05T21:13:26.572Z,16.30
2022-08-05T21:16:07.820Z,16.30
2022-08-05T21:18:36.638Z,16.20
2022-08-05T21:21:05.901Z,16.10
2022-08-05T21:23:35.918Z,16.00
2022-08-05T21:26:12.256Z,16.00
2022-08-05T21:28:47.934Z,15.90
2022-08-05T21:31:19.935Z,15.90
2022-08-05T21:33:50.061Z,15.80
2022-08-05T21:36:30.053Z,15.80
2022-08-05T21:39:01.597Z,15.80
2022-08-05T21:41:34.248Z,15.80
2022-08-05T21:44:05.011Z,15.80
2022-08-05T21:46:34.943Z,15.80
2022-08-05T21:49:07.304Z,15.80
2022-08-05T21:52:22.948Z,15.80
2022-08-05T21:54:30.655Z,15.70
2022-08-05T22:00:06.060Z,15.50
2022-08-05T22:02:36.050Z,15.50
2022-08-05T22:05:06.231Z,15.50
2022-08-05T22:07:40.352Z,15.50
2022-08-05T22:10:27.471Z,15.50
2022-08-05T22:12:59.233Z,15.40
2022-08-05T22:16:00.724Z,15.40
2022-08-05T22:18:27.134Z,15.30
2022-08-05T22:20:55.991Z,15.40
2022-08-05T22:24:02.034Z,15.40
2022-08-05T22:26:49.883Z,15.40
2022-08-05T22:29:26.613Z,15.30
2022-08-05T22:32:03.132Z,15.30
2022-08-05T22:34:32.713Z,15.20
2022-08-05T22:37:03.900Z,15.20
2022-08-05T22:39:34.792Z,15.20
2022-08-05T22:42:11.231Z,15.20
2022-08-05T22:44:53.570Z,15.10
2022-08-05T22:47:30.403Z,15.00
2022-08-05T22:50:19.698Z,14.90
2022-08-05T22:52:50.184Z,14.90
2022-08-05T22:55:21.667Z,14.80
2022-08-05T22:57:50.812Z,14.80
2022-08-05T23:00:22.582Z,14.80
2022-08-05T23:02:53.532Z,14.70
2022-08-05T23:05:23.111Z,14.80
2022-08-05T23:07:52.073Z,14.90
2022-08-05T23:10:23.673Z,15.10
2022-08-05T23:12:55.023Z,15.10
2022-08-05T23:15:26.993Z,15.10
2022-08-05T23:18:02.324Z,15.10
2022-08-05T23:20:33.209Z,15.20
2022-08-05T23:23:08.312Z,15.20
2022-08-05T23:25:52.254Z,15.30
2022-08-05T23:28:29.234Z,15.40
2022-08-05T23:31:07.066Z,15.50
2022-08-05T23:34:05.284Z,15.50
2022-08-05T23:36:38.783Z,15.60
2022-08-05T23:39:17.227Z,15.50
2022-08-05T23:41:53.900Z,15.50
2022-08-05T23:44:27.844Z,15.40
2022-08-05T23:47:02.505Z,15.30
2022-08-05T23:49:43.628Z,15.20
2022-08-05T23:52:35.782Z,15.10
2022-08-05T23:55:08.971Z,15.00
2022-08-05T23:57:40.760Z,14.90
